Time;durP1;ratioP1;P1;durP2;ratioP2;P2;SDS_P1;SDS_P2;PMS_P1;PMS_P2;Temp;Humidity;BMP_temperature;BMP_pressure;BME280_temperature;BME280_humidity;BME280_pressure;Samples;Min_cycle;Max_cycle;Signal;HPM_P1;HPM_P2
2022/08/26 00:02:06;;;;;;;9.05;4.50;;;;;;;;;;5035565;28;20401;-52
2022/08/26 00:04:36;;;;;;;9.75;5.70;;;;;;;;;;5035598;28;20053;-50
2022/08/26 00:07:04;;;;;;;12.60;6.10;;;;;;;;;;5034883;28;20073;-51
2022/08/26 00:09:32;;;;;;;9.90;5.05;;;;;;;;;;5035456;28;20053;-49
2022/08/26 00:12:03;;;;;;;13.50;7.45;;;;;;;;;;5035352;28;20498;-48
2022/08/26 00:14:29;;;;;;;13.90;6.68;;;;;;;;;;5035599;28;20245;-50
2022/08/26 00:16:58;;;;;;;15.65;7.22;;;;;;;;;;5035378;28;20057;-50
2022/08/26 00:19:35;;;;;;;10.30;5.32;;;;;;;;;;5035592;28;20064;-50
2022/08/26 00:22:03;;;;;;;10.32;4.82;;;;;;;;;;5035326;28;20049;-50
2022/08/26 00:24:31;;;;;;;12.05;6.05;;;;;;;;;;5035139;28;20840;-53
2022/08/26 00:26:57;;;;;;;8.88;4.93;;;;;;;;;;5035524;28;20060;-49
2022/08/26 00:29:25;;;;;;;9.73;5.80;;;;;;;;;;5023384;28;20050;-51
2022/08/26 00:31:56;;;;;;;12.65;6.88;;;;;;;;;;5015266;28;20225;-51
2022/08/26 00:34:25;;;;;;;7.28;5.18;;;;;;;;;;5031304;28;20072;-49
2022/08/26 00:36:57;;;;;;;11.82;6.88;;;;;;;;;;5035496;28;20045;-52
2022/08/26 00:39:25;;;;;;;11.45;5.75;;;;;;;;;;5034711;28;20064;-49
2022/08/26 00:41:55;;;;;;;10.32;6.50;;;;;;;;;;5034957;28;20596;-50
2022/08/26 00:44:21;;;;;;;15.35;7.28;;;;;;;;;;5035414;28;20131;-50
2022/08/26 00:46:51;;;;;;;10.68;5.57;;;;;;;;;;5034867;28;20041;-49
2022/08/26 00:49:22;;;;;;;18.15;8.80;;;;;;;;;;5034826;28;20050;-49
2022/08/26 00:51:59;;;;;;;16.25;7.72;;;;;;;;;;5035248;28;20053;-50
2022/08/26 00:54:33;;;;;;;16.90;8.70;;;;;;;;;;5026383;28;20764;-52
2022/08/26 00:57:04;;;;;;;11.15;5.55;;;;;;;;;;5015506;28;20062;-51
2022/08/26 00:59:32;;;;;;;12.77;6.53;;;;;;;;;;5014837;28;20056;-49
2022/08/26 01:02:08;;;;;;;16.70;8.32;;;;;;;;;;5033802;28;20140;-53
2022/08/26 01:04:39;;;;;;;15.27;7.00;;;;;;;;;;5034961;28;20049;-50
2022/08/26 01:07:07;;;;;;;11.55;5.88;;;;;;;;;;5034358;28;20056;-50
2022/08/26 01:09:42;;;;;;;13.88;6.05;;;;;;;;;;5015093;28;20087;-50
2022/08/26 01:12:10;;;;;;;11.40;6.30;;;;;;;;;;5015056;28;20061;-51
2022/08/26 01:14:39;;;;;;;13.48;8.45;;;;;;;;;;5014127;28;20060;-50
2022/08/26 01:17:07;;;;;;;14.60;7.72;;;;;;;;;;5014821;28;20056;-50
2022/08/26 01:19:38;;;;;;;23.20;8.50;;;;;;;;;;5014957;28;20054;-49
2022/08/26 01:22:09;;;;;;;16.20;8.85;;;;;;;;;;5014705;28;20060;-49
2022/08/26 01:24:41;;;;;;;15.73;8.02;;;;;;;;;;5014948;28;20065;-50
2022/08/26 01:27:13;;;;;;;13.60;7.28;;;;;;;;;;5018569;28;20458;-49
2022/08/26 01:29:42;;;;;;;18.17;8.75;;;;;;;;;;5014879;28;20061;-50
2022/08/26 01:32:19;;;;;;;21.73;9.20;;;;;;;;;;5027818;28;20069;-49
2022/08/26 01:34:46;;;;;;;10.88;6.38;;;;;;;;;;5034437;28;20049;-49
2022/08/26 01:37:16;;;;;;;14.23;7.82;;;;;;;;;;5032921;28;20469;-50
2022/08/26 01:39:50;;;;;;;15.52;6.90;;;;;;;;;;5034324;28;20072;-50
2022/08/26 01:42:17;;;;;;;17.67;8.93;;;;;;;;;;5034280;28;20132;-50
2022/08/26 01:44:54;;;;;;;16.70;7.75;;;;;;;;;;5034269;28;20049;-49
2022/08/26 01:47:30;;;;;;;18.52;8.68;;;;;;;;;;5033827;28;20561;-52
2022/08/26 01:50:00;;;;;;;15.02;7.85;;;;;;;;;;5034068;28;20049;-49
2022/08/26 01:52:30;;;;;;;19.98;9.23;;;;;;;;;;5032361;28;20081;-51
2022/08/26 01:55:14;;;;;;;14.60;6.75;;;;;;;;;;5033679;28;20055;-50
2022/08/26 01:57:42;;;;;;;12.93;6.47;;;;;;;;;;5033668;28;20049;-50
2022/08/26 02:00:12;;;;;;;20.70;9.82;;;;;;;;;;5033834;28;20045;-52
2022/08/26 02:02:38;;;;;;;16.70;7.78;;;;;;;;;;5033794;28;20080;-49
2022/08/26 02:05:16;;;;;;;16.63;8.77;;;;;;;;;;5033718;28;20058;-53
2022/08/26 02:07:44;;;;;;;16.65;7.75;;;;;;;;;;5033423;28;20057;-49
2022/08/26 02:10:15;;;;;;;24.45;8.52;;;;;;;;;;5033491;28;20470;-50
2022/08/26 02:12:42;;;;;;;16.30;8.40;;;;;;;;;;5033820;28;20060;-51
2022/08/26 02:15:11;;;;;;;16.90;9.30;;;;;;;;;;5032781;28;20045;-50
2022/08/26 02:17:41;;;;;;;11.82;6.63;;;;;;;;;;5033431;28;20041;-49
2022/08/26 02:20:10;;;;;;;17.08;7.32;;;;;;;;;;5033885;28;20049;-49
2022/08/26 02:22:38;;;;;;;12.23;5.97;;;;;;;;;;5033111;28;20459;-49
2022/08/26 02:25:13;;;;;;;19.23;9.02;;;;;;;;;;5033395;28;20050;-52
2022/08/26 02:27:45;;;;;;;21.75;10.20;;;;;;;;;;5032766;28;20092;-50
2022/08/26 02:30:14;;;;;;;14.15;7.60;;;;;;;;;;5033252;28;20049;-52
2022/08/26 02:32:42;;;;;;;15.35;7.70;;;;;;;;;;5032656;28;20463;-48
2022/08/26 02:35:13;;;;;;;10.57;6.45;;;;;;;;;;5033284;28;20053;-52
2022/08/26 02:37:44;;;;;;;18.52;8.55;;;;;;;;;;5033339;28;20053;-49
2022/08/26 02:40:13;;;;;;;15.35;9.05;;;;;;;;;;5033624;28;20438;-49
2022/08/26 02:42:41;;;;;;;10.13;6.05;;;;;;;;;;5033328;28;20111;-49
2022/08/26 02:45:13;;;;;;;8.93;5.28;;;;;;;;;;5032967;28;20363;-50
2022/08/26 02:47:42;;;;;;;17.23;7.95;;;;;;;;;;5032955;28;20414;-53
2022/08/26 02:50:11;;;;;;;22.45;9.88;;;;;;;;;;5032883;28;20061;-53
2022/08/26 02:52:39;;;;;;;24.58;10.23;;;;;;;;;;5032998;28;20049;-52
2022/08/26 02:55:08;;;;;;;13.25;7.60;;;;;;;;;;5019301;28;20057;-49
2022/08/26 02:57:38;;;;;;;12.02;7.72;;;;;;;;;;5013014;28;20065;-48
2022/08/26 03:00:21;;;;;;;13.45;7.30;;;;;;;;;;5016776;28;20060;-49
2022/08/26 03:02:51;;;;;;;14.10;7.32;;;;;;;;;;5032740;28;20050;-49
2022/08/26 03:05:22;;;;;;;26.63;10.65;;;;;;;;;;5032524;28;20053;-50
2022/08/26 03:07:52;;;;;;;20.73;9.90;;;;;;;;;;5032972;28;20362;-51
2022/08/26 03:10:21;;;;;;;20.98;9.93;;;;;;;;;;5033131;28;20049;-49
2022/08/26 03:12:48;;;;;;;21.60;11.43;;;;;;;;;;5033161;28;20056;-51
2022/08/26 03:15:19;;;;;;;32.45;12.35;;;;;;;;;;5017929;28;20057;-52
2022/08/26 03:17:46;;;;;;;25.15;11.35;;;;;;;;;;5013257;28;20050;-49
2022/08/26 03:20:16;;;;;;;21.10;9.10;;;;;;;;;;5013238;28;20069;-51
2022/08/26 03:22:52;;;;;;;27.23;11.95;;;;;;;;;;5013210;28;20050;-52
2022/08/26 03:25:21;;;;;;;14.43;9.00;;;;;;;;;;5014065;28;20152;-53
2022/08/26 03:27:49;;;;;;;16.13;9.05;;;;;;;;;;5033066;28;20079;-51
2022/08/26 03:33:16;;;;;;;31.83;10.75;;;;;;;;;;5035382;28;20179;-51
2022/08/26 03:35:46;;;;;;;13.23;7.78;;;;;;;;;;5035737;28;20045;-50
2022/08/26 03:38:16;;;;;;;35.90;11.52;;;;;;;;;;5035695;28;20479;-50
2022/08/26 03:40:45;;;;;;;45.90;12.63;;;;;;;;;;5035658;28;20049;-50
2022/08/26 03:43:12;;;;;;;57.25;13.60;;;;;;;;;;5035423;28;20437;-49
2022/08/26 03:45:54;;;;;;;28.00;11.30;;;;;;;;;;5034494;28;20406;-53
2022/08/26 03:48:24;;;;;;;18.10;8.15;;;;;;;;;;5035810;28;20049;-51
2022/08/26 03:50:54;;;;;;;39.15;12.13;;;;;;;;;;5015994;28;20058;-50
2022/08/26 03:53:22;;;;;;;40.38;12.52;;;;;;;;;;5017918;28;20060;-51
2022/08/26 03:55:50;;;;;;;24.65;9.15;;;;;;;;;;5015743;28;20050;-49
2022/08/26 03:58:19;;;;;;;22.80;10.05;;;;;;;;;;5015935;28;20053;-50
2022/08/26 04:00:50;;;;;;;31.70;11.70;;;;;;;;;;5024760;28;20128;-50
2022/08/26 04:03:56;;;;;;;59.00;14.63;;;;;;;;;;5036004;28;20054;-50
2022/08/26 04:06:07;;;;;;;35.65;11.13;;;;;;;;;;5035444;28;20504;-49
2022/08/26 04:08:38;;;;;;;24.67;10.68;;;;;;;;;;5036002;28;20085;-53
2022/08/26 04:11:07;;;;;;;49.05;12.90;;;;;;;;;;5034339;28;20045;-50
2022/08/26 04:13:36;;;;;;;35.70;12.85;;;;;;;;;;5015582;28;20104;-49
2022/08/26 04:16:13;;;;;;;41.90;13.05;;;;;;;;;;5034960;28;20099;-50
2022/08/26 04:18:43;;;;;;;41.95;12.68;;;;;;;;;;5035567;28;20041;-49
2022/08/26 04:21:12;;;;;;;28.92;10.52;;;;;;;;;;5035846;28;20049;-53
2022/08/26 04:23:41;;;;;;;24.27;10.98;;;;;;;;;;5035445;28;20073;-49
2022/08/26 04:26:08;;;;;;;30.02;10.32;;;;;;;;;;5034914;28;20133;-49
2022/08/26 04:28:35;;;;;;;23.83;10.95;;;;;;;;;;5035657;28;20064;-50
2022/08/26 04:31:13;;;;;;;20.77;9.27;;;;;;;;;;5035341;28;20053;-50
2022/08/26 04:33:41;;;;;;;27.17;13.48;;;;;;;;;;5035466;28;20060;-49
2022/08/26 04:36:09;;;;;;;33.45;12.25;;;;;;;;;;5035346;28;20064;-49
2022/08/26 04:38:39;;;;;;;28.60;10.85;;;;;;;;;;5034868;28;20072;-53
2022/08/26 04:41:08;;;;;;;19.20;9.25;;;;;;;;;;5035472;28;20179;-49
2022/08/26 04:43:37;;;;;;;21.90;9.27;;;;;;;;;;5034625;28;20049;-50
2022/08/26 04:46:08;;;;;;;26.45;11.23;;;;;;;;;;5035271;28;20055;-49
2022/08/26 04:48:34;;;;;;;22.30;11.40;;;;;;;;;;5035038;28;20084;-50
2022/08/26 04:51:03;;;;;;;23.67;12.13;;;;;;;;;;5035380;28;20096;-50
2022/08/26 04:53:30;;;;;;;15.68;8.52;;;;;;;;;;5034353;28;20127;-52
2022/08/26 04:55:56;;;;;;;16.13;9.63;;;;;;;;;;5015222;28;20137;-51
2022/08/26 04:58:24;;;;;;;26.92;13.25;;;;;;;;;;5014797;28;20057;-49
2022/08/26 05:01:00;;;;;;;23.45;11.90;;;;;;;;;;5025150;28;20064;-51
2022/08/26 05:03:31;;;;;;;26.33;14.38;;;;;;;;;;5034919;28;20115;-49
2022/08/26 05:06:00;;;;;;;41.63;16.83;;;;;;;;;;5034206;28;20488;-51
2022/08/26 05:08:30;;;;;;;19.83;9.93;;;;;;;;;;5034864;28;20068;-52
2022/08/26 05:11:01;;;;;;;27.05;12.82;;;;;;;;;;5034927;28;20050;-48
2022/08/26 05:13:30;;;;;;;19.45;10.32;;;;;;;;;;5034521;28;20473;-49
2022/08/26 05:15:59;;;;;;;19.30;10.95;;;;;;;;;;5034883;28;20071;-50
2022/08/26 05:18:34;;;;;;;18.92;10.10;;;;;;;;;;5034585;28;20057;-51
2022/08/26 05:21:05;;;;;;;;;;;;;;;;;;5034756;28;20119;-49
2022/08/26 05:23:34;;;;;;;16.02;7.88;;;;;;;;;;5034630;28;19939;-48
2022/08/26 05:26:01;;;;;;;14.85;8.10;;;;;;;;;;5034662;28;20140;-52
2022/08/26 05:28:31;;;;;;;26.85;13.75;;;;;;;;;;5033493;28;20721;-49
2022/08/26 05:30:57;;;;;;;28.92;12.27;;;;;;;;;;5033873;28;20140;-50
2022/08/26 05:33:26;;;;;;;16.05;9.75;;;;;;;;;;5034477;28;20059;-51
2022/08/26 05:35:54;;;;;;;33.15;14.25;;;;;;;;;;5034593;28;20057;-51
2022/08/26 05:38:30;;;;;;;30.00;13.38;;;;;;;;;;5034229;28;20046;-53
2022/08/26 05:40:57;;;;;;;20.23;12.52;;;;;;;;;;5034329;28;20057;-49
2022/08/26 05:43:24;;;;;;;19.60;11.70;;;;;;;;;;5033763;28;20406;-49
2022/08/26 05:45:54;;;;;;;18.52;10.43;;;;;;;;;;5034150;28;20128;-50
2022/08/26 05:48:24;;;;;;;29.15;13.90;;;;;;;;;;5033428;28;20054;-53
2022/08/26 05:51:07;;;;;;;24.65;11.18;;;;;;;;;;5020416;28;20049;-53
2022/08/26 05:53:43;;;;;;;19.88;8.93;;;;;;;;;;5032914;28;20064;-53
2022/08/26 05:56:12;;;;;;;41.63;13.55;;;;;;;;;;5014285;28;20060;-51
2022/08/26 05:58:41;;;;;;;31.60;13.13;;;;;;;;;;5020660;28;20045;-51
2022/08/26 06:01:13;;;;;;;17.27;9.55;;;;;;;;;;5033724;28;20045;-52
2022/08/26 06:03:40;;;;;;;11.50;7.88;;;;;;;;;;5033799;28;20056;-53
2022/08/26 06:06:12;;;;;;;11.88;6.63;;;;;;;;;;5033409;28;20425;-49
2022/08/26 06:08:40;;;;;;;16.77;7.45;;;;;;;;;;5028734;28;20049;-53
2022/08/26 06:11:09;;;;;;;17.27;8.05;;;;;;;;;;5013894;28;20054;-50
2022/08/26 06:13:36;;;;;;;25.98;10.27;;;;;;;;;;5002109;28;20053;-53
2022/08/26 06:16:06;;;;;;;20.77;9.48;;;;;;;;;;5031996;28;20057;-50
2022/08/26 06:18:49;;;;;;;24.92;10.07;;;;;;;;;;5035266;28;20041;-49
2022/08/26 06:21:19;;;;;;;17.10;8.60;;;;;;;;;;5034191;28;20049;-48
2022/08/26 06:26:34;;;;;;;25.38;10.07;;;;;;;;;;5032604;28;20068;-50
2022/08/26 06:29:05;;;;;;;12.20;8.52;;;;;;;;;;5032613;28;20049;-48
2022/08/26 06:31:34;;;;;;;19.73;8.15;;;;;;;;;;5032895;28;20068;-48
2022/08/26 06:34:03;;;;;;;16.33;9.60;;;;;;;;;;5032326;28;20115;-49
2022/08/26 06:36:46;;;;;;;22.00;11.63;;;;;;;;;;5031948;28;20089;-55
2022/08/26 06:39:16;;;;;;;17.83;9.23;;;;;;;;;;5037563;28;20049;-52
2022/08/26 06:41:45;;;;;;;11.48;7.60;;;;;;;;;;5043935;28;20080;-56
2022/08/26 06:44:13;;;;;;;28.23;13.43;;;;;;;;;;5045876;28;20111;-55
2022/08/26 06:46:44;;;;;;;18.63;10.18;;;;;;;;;;5029336;28;20053;-55
2022/08/26 06:49:21;;;;;;;24.95;12.35;;;;;;;;;;5045036;28;20049;-56
2022/08/26 06:52:07;;;;;;;19.00;9.98;;;;;;;;;;5034357;28;20053;-55
2022/08/26 06:54:41;;;;;;;24.05;11.30;;;;;;;;;;5030879;28;20053;-54
2022/08/26 06:57:10;;;;;;;12.25;7.70;;;;;;;;;;5032607;28;20046;-54
2022/08/26 07:02:24;;;;;;;18.42;9.38;;;;;;;;;;5034021;28;20123;-52
2022/08/26 07:04:51;;;;;;;25.88;9.75;;;;;;;;;;5038518;28;20049;-54
2022/08/26 07:07:21;;;;;;;21.88;9.65;;;;;;;;;;5037127;28;20132;-55
2022/08/26 07:09:53;;;;;;;12.65;6.32;;;;;;;;;;5036266;28;20057;-55
2022/08/26 07:12:34;;;;;;;14.05;7.50;;;;;;;;;;5035607;28;20060;-54
2022/08/26 07:15:10;;;;;;;14.02;5.75;;;;;;;;;;5038461;28;20053;-55
2022/08/26 07:17:39;;;;;;;17.10;8.18;;;;;;;;;;5036422;28;20160;-55
2022/08/26 07:20:10;;;;;;;11.95;5.75;;;;;;;;;;5036050;28;20155;-51
2022/08/26 07:22:40;;;;;;;14.07;6.45;;;;;;;;;;5034946;28;20566;-51
2022/08/26 07:25:12;;;;;;;10.60;6.18;;;;;;;;;;5035922;28;20064;-51
2022/08/26 07:27:40;;;;;;;16.63;5.45;;;;;;;;;;5035923;28;20045;-51
2022/08/26 07:30:07;;;;;;;15.07;6.20;;;;;;;;;;5035125;28;20450;-53
2022/08/26 07:32:38;;;;;;;9.60;5.18;;;;;;;;;;5034047;28;20123;-49
2022/08/26 07:35:07;;;;;;;16.85;7.22;;;;;;;;;;5035743;28;20066;-49
2022/08/26 07:37:36;;;;;;;13.85;6.13;;;;;;;;;;5034895;28;20147;-49
2022/08/26 07:40:04;;;;;;;15.18;6.53;;;;;;;;;;5035179;28;20107;-51
2022/08/26 07:42:38;;;;;;;11.45;5.72;;;;;;;;;;5034446;28;20057;-51
2022/08/26 07:45:07;;;;;;;12.98;6.18;;;;;;;;;;5035065;28;20382;-49
2022/08/26 07:47:33;;;;;;;14.35;6.07;;;;;;;;;;5035959;28;20128;-50
2022/08/26 07:50:02;;;;;;;17.08;6.20;;;;;;;;;;5035773;28;20070;-50
2022/08/26 07:52:32;;;;;;;21.08;6.72;;;;;;;;;;5034923;28;20221;-50
2022/08/26 07:55:00;;;;;;;20.13;7.45;;;;;;;;;;5035558;28;20053;-51
2022/08/26 07:57:30;;;;;;;16.08;7.80;;;;;;;;;;5035111;28;20056;-50
2022/08/26 08:00:00;;;;;;;11.18;5.75;;;;;;;;;;5034945;28;20556;-53
2022/08/26 08:02:29;;;;;;;15.05;6.45;;;;;;;;;;5035519;28;20103;-53
2022/08/26 08:04:57;;;;;;;17.95;7.22;;;;;;;;;;5024388;28;20447;-53
2022/08/26 08:07:32;;;;;;;25.70;8.27;;;;;;;;;;5025116;28;20450;-54
2022/08/26 08:09:59;;;;;;;15.18;6.25;;;;;;;;;;5036108;28;20451;-52
2022/08/26 08:12:26;;;;;;;24.00;7.25;;;;;;;;;;5034210;28;20045;-54
2022/08/26 08:14:53;;;;;;;20.33;8.05;;;;;;;;;;5034908;28;20671;-51
2022/08/26 08:17:21;;;;;;;20.92;7.78;;;;;;;;;;5036260;28;20127;-52
2022/08/26 08:19:51;;;;;;;20.75;6.78;;;;;;;;;;5035556;28;20478;-50
2022/08/26 08:22:17;;;;;;;13.32;6.00;;;;;;;;;;5036060;28;20111;-52
2022/08/26 08:24:45;;;;;;;18.95;7.00;;;;;;;;;;5035639;28;20072;-54
2022/08/26 08:27:13;;;;;;;18.77;6.45;;;;;;;;;;5034898;28;20096;-53
2022/08/26 08:29:48;;;;;;;10.85;5.05;;;;;;;;;;5026165;28;20467;-55
2022/08/26 08:32:16;;;;;;;10.95;5.10;;;;;;;;;;5016414;28;20057;-58
2022/08/26 08:34:47;;;;;;;15.57;7.10;;;;;;;;;;5041300;28;20081;-58
2022/08/26 08:37:15;;;;;;;18.10;6.72;;;;;;;;;;5024724;28;20481;-55
2022/08/26 08:39:43;;;;;;;20.08;6.35;;;;;;;;;;5035100;28;20053;-56
2022/08/26 08:42:27;;;;;;;10.05;5.28;;;;;;;;;;5035161;28;20049;-53
2022/08/26 08:45:01;;;;;;;11.68;5.60;;;;;;;;;;5034611;28;20820;-53
2022/08/26 08:47:32;;;;;;;;;;;;;;;;;;5035552;28;20045;-54
2022/08/26 08:50:20;;;;;;;14.05;6.80;;;;;;;;;;5042437;28;19996;-53
2022/08/26 08:52:57;;;;;;;11.35;4.60;;;;;;;;;;5051055;28;20049;-51
2022/08/26 08:55:25;;;;;;;18.25;6.22;;;;;;;;;;5032786;28;20053;-54
2022/08/26 08:58:02;;;;;;;12.85;6.90;;;;;;;;;;5036192;28;20478;-54
2022/08/26 09:00:36;;;;;;;14.95;6.65;;;;;;;;;;5036118;28;20150;-54
2022/08/26 09:03:10;;;;;;;17.95;6.93;;;;;;;;;;5037227;28;20085;-49
2022/08/26 09:05:43;;;;;;;19.60;7.18;;;;;;;;;;5033540;28;20155;-50
2022/08/26 09:10:55;;;;;;;15.40;6.45;;;;;;;;;;5019280;28;20053;-48
2022/08/26 09:13:25;;;;;;;13.57;6.30;;;;;;;;;;5033436;28;20470;-49
2022/08/26 09:16:00;;;;;;;11.98;4.95;;;;;;;;;;5033553;28;20056;-48
2022/08/26 09:18:40;;;;;;;10.18;4.88;;;;;;;;;;5032779;28;20136;-49
2022/08/26 09:21:23;;;;;;;15.15;6.07;;;;;;;;;;5034043;28;20045;-48
2022/08/26 09:23:51;;;;;;;11.05;4.97;;;;;;;;;;5034251;28;20095;-50
2022/08/26 09:26:34;;;;;;;11.73;5.13;;;;;;;;;;5033487;28;20124;-52
2022/08/26 09:29:03;;;;;;;13.65;6.05;;;;;;;;;;5033390;28;20107;-51
2022/08/26 09:31:31;;;;;;;13.68;5.70;;;;;;;;;;5033492;28;20065;-51
2022/08/26 09:34:11;;;;;;;11.88;5.40;;;;;;;;;;5026943;28;20446;-49
2022/08/26 09:36:40;;;;;;;9.82;5.20;;;;;;;;;;5032879;28;20045;-49
2022/08/26 09:39:11;;;;;;;14.65;5.65;;;;;;;;;;5020188;28;20072;-50
2022/08/26 09:41:42;;;;;;;11.60;4.70;;;;;;;;;;5032811;28;20392;-50
2022/08/26 09:44:14;;;;;;;9.50;5.03;;;;;;;;;;5033035;28;20084;-51
2022/08/26 09:46:42;;;;;;;14.95;5.43;;;;;;;;;;5021474;28;20056;-52
2022/08/26 09:49:23;;;;;;;11.82;5.05;;;;;;;;;;5034775;28;20064;-53
2022/08/26 09:52:07;;;;;;;16.45;5.47;;;;;;;;;;5033194;28;20060;-50
2022/08/26 09:54:35;;;;;;;14.37;5.20;;;;;;;;;;5032938;28;20133;-52
2022/08/26 09:57:18;;;;;;;8.95;4.40;;;;;;;;;;5032102;28;20057;-52
2022/08/26 09:59:49;;;;;;;9.50;4.60;;;;;;;;;;5032762;28;20501;-50
2022/08/26 10:02:36;;;;;;;12.90;5.30;;;;;;;;;;5028490;28;20053;-53
2022/08/26 10:05:06;;;;;;;9.10;4.28;;;;;;;;;;5027491;28;20049;-49
2022/08/26 10:07:52;;;;;;;15.25;4.80;;;;;;;;;;5031794;28;20053;-50
2022/08/26 10:10:22;;;;;;;12.15;5.78;;;;;;;;;;5032362;28;20124;-51
2022/08/26 10:12:56;;;;;;;10.43;4.03;;;;;;;;;;5025465;28;20055;-50
2022/08/26 10:15:24;;;;;;;11.27;4.25;;;;;;;;;;5027346;28;20053;-47
2022/08/26 10:17:54;;;;;;;15.57;5.65;;;;;;;;;;5025770;28;20046;-48
2022/08/26 10:20:23;;;;;;;11.48;5.25;;;;;;;;;;5032436;28;20049;-48
2022/08/26 10:22:54;;;;;;;19.58;5.78;;;;;;;;;;5033573;28;20045;-49
2022/08/26 10:25:23;;;;;;;11.18;5.50;;;;;;;;;;5033389;28;20115;-48
2022/08/26 10:27:53;;;;;;;14.13;5.38;;;;;;;;;;5032307;28;20060;-50
2022/08/26 10:30:21;;;;;;;9.32;4.80;;;;;;;;;;5032671;28;20064;-52
2022/08/26 10:32:50;;;;;;;10.18;4.20;;;;;;;;;;5031816;28;20132;-50
2022/08/26 10:35:18;;;;;;;10.43;4.43;;;;;;;;;;5025299;28;20542;-49
2022/08/26 10:37:46;;;;;;;10.55;4.82;;;;;;;;;;5025368;28;20056;-50
2022/08/26 10:40:17;;;;;;;14.10;5.90;;;;;;;;;;5032426;28;20084;-50
2022/08/26 10:42:45;;;;;;;13.57;6.15;;;;;;;;;;5031592;28;20485;-50
2022/08/26 10:45:13;;;;;;;12.68;4.50;;;;;;;;;;5032521;28;20056;-51
2022/08/26 10:47:42;;;;;;;11.18;4.57;;;;;;;;;;5032657;28;20378;-50
2022/08/26 10:50:09;;;;;;;12.82;4.25;;;;;;;;;;5032425;28;20057;-50
2022/08/26 10:52:44;;;;;;;11.15;3.97;;;;;;;;;;5032595;28;20053;-47
2022/08/26 10:55:14;;;;;;;10.90;4.55;;;;;;;;;;5028393;28;20049;-49
2022/08/26 10:57:46;;;;;;;25.83;4.57;;;;;;;;;;5032734;28;20446;-49
2022/08/26 11:03:02;;;;;;;14.32;4.30;;;;;;;;;;5016393;28;20052;-51
2022/08/26 11:05:29;;;;;;;17.10;5.40;;;;;;;;;;5018057;28;20084;-52
2022/08/26 11:08:19;;;;;;;10.77;4.05;;;;;;;;;;5032029;28;20049;-50
2022/08/26 11:11:03;;;;;;;6.05;4.10;;;;;;;;;;5032582;28;20054;-48
2022/08/26 11:13:29;;;;;;;;;;;;;;;;;;5032404;28;20056;-51
2022/08/26 11:15:59;;;;;;;7.80;4.05;;;;;;;;;;5031746;28;19933;-50
2022/08/26 11:18:42;;;;;;;11.20;4.22;;;;;;;;;;5033238;28;20459;-49
2022/08/26 11:21:26;;;;;;;5.93;3.33;;;;;;;;;;5031647;28;20445;-51
2022/08/26 11:23:52;;;;;;;5.18;2.90;;;;;;;;;;5025236;28;20145;-53
2022/08/26 11:26:19;;;;;;;7.32;3.53;;;;;;;;;;5027734;28;20041;-53
2022/08/26 11:28:47;;;;;;;7.93;3.35;;;;;;;;;;5030418;28;20468;-49
2022/08/26 11:31:45;;;;;;;5.57;3.53;;;;;;;;;;5030132;28;20096;-48
2022/08/26 11:34:13;;;;;;;12.55;3.60;;;;;;;;;;5027104;28;20063;-49
2022/08/26 11:36:41;;;;;;;8.02;3.55;;;;;;;;;;5031198;28;20045;-48
2022/08/26 11:39:16;;;;;;;4.28;2.78;;;;;;;;;;5028277;28;20049;-52
2022/08/26 11:41:43;;;;;;;15.48;4.45;;;;;;;;;;5029704;28;20069;-50
2022/08/26 11:44:10;;;;;;;5.35;3.05;;;;;;;;;;5022638;28;20064;-50
2022/08/26 11:46:37;;;;;;;7.72;2.83;;;;;;;;;;5033652;28;20055;-50
2022/08/26 11:49:05;;;;;;;7.03;2.38;;;;;;;;;;5035519;28;20077;-49
2022/08/26 11:51:32;;;;;;;7.05;2.72;;;;;;;;;;5035672;28;20124;-48
2022/08/26 11:54:09;;;;;;;4.78;2.40;;;;;;;;;;5030200;28;20053;-49
2022/08/26 11:56:36;;;;;;;8.57;2.70;;;;;;;;;;5030471;28;20045;-49
2022/08/26 11:59:07;;;;;;;6.20;3.00;;;;;;;;;;5035600;28;20445;-49
2022/08/26 12:01:34;;;;;;;8.40;2.88;;;;;;;;;;5032229;28;20069;-52
2022/08/26 12:04:02;;;;;;;6.97;3.08;;;;;;;;;;5034179;28;20104;-49
2022/08/26 12:06:31;;;;;;;5.20;2.50;;;;;;;;;;5035227;28;20455;-48
2022/08/26 12:08:59;;;;;;;10.32;2.92;;;;;;;;;;5034972;28;20145;-49
2022/08/26 12:11:27;;;;;;;12.65;2.95;;;;;;;;;;5034528;28;20061;-46
2022/08/26 12:13:56;;;;;;;9.23;2.58;;;;;;;;;;5018807;28;20460;-48
2022/08/26 12:16:25;;;;;;;7.57;2.83;;;;;;;;;;5033213;28;20053;-49
2022/08/26 12:18:52;;;;;;;11.00;3.60;;;;;;;;;;5035106;28;20493;-48
2022/08/26 12:21:21;;;;;;;6.78;2.83;;;;;;;;;;5034322;28;20045;-48
2022/08/26 12:23:49;;;;;;;8.77;2.80;;;;;;;;;;5034979;28;20061;-49
2022/08/26 12:26:21;;;;;;;16.30;4.35;;;;;;;;;;5035294;28;20056;-48
2022/08/26 12:28:49;;;;;;;7.85;2.92;;;;;;;;;;5028376;28;20057;-49
2022/08/26 12:31:20;;;;;;;7.82;2.85;;;;;;;;;;5031106;28;20062;-48
2022/08/26 12:33:47;;;;;;;9.90;2.78;;;;;;;;;;5034447;28;20095;-47
2022/08/26 12:36:17;;;;;;;3.78;2.20;;;;;;;;;;5034073;28;20053;-50
2022/08/26 12:38:47;;;;;;;3.08;2.03;;;;;;;;;;5034061;28;20091;-47
2022/08/26 12:41:28;;;;;;;6.47;2.53;;;;;;;;;;5034997;28;20107;-50
2022/08/26 12:43:55;;;;;;;5.75;2.00;;;;;;;;;;5034151;28;20081;-50
2022/08/26 12:46:27;;;;;;;11.10;2.65;;;;;;;;;;5034684;28;20140;-50
2022/08/26 12:48:53;;;;;;;8.20;2.92;;;;;;;;;;5034515;28;20053;-49
2022/08/26 12:51:22;;;;;;;4.55;1.90;;;;;;;;;;5034414;28;20139;-50
2022/08/26 12:53:51;;;;;;;6.07;2.22;;;;;;;;;;5033880;28;20041;-49
2022/08/26 12:56:19;;;;;;;8.88;2.78;;;;;;;;;;5033794;28;20378;-49
2022/08/26 12:58:59;;;;;;;12.20;2.60;;;;;;;;;;5033292;28;20462;-50
2022/08/26 13:01:25;;;;;;;7.20;2.00;;;;;;;;;;5033893;28;20096;-49
2022/08/26 13:03:52;;;;;;;9.18;3.15;;;;;;;;;;5034917;28;20064;-52
2022/08/26 13:06:26;;;;;;;9.00;3.10;;;;;;;;;;5035113;28;20230;-49
2022/08/26 13:08:55;;;;;;;6.60;3.10;;;;;;;;;;5034799;28;20050;-49
2022/08/26 13:11:23;;;;;;;4.30;2.25;;;;;;;;;;5034134;28;20465;-48
2022/08/26 13:13:50;;;;;;;9.43;2.88;;;;;;;;;;5034543;28;20064;-50
2022/08/26 13:16:17;;;;;;;9.52;2.92;;;;;;;;;;5033769;28;20438;-48
2022/08/26 13:18:44;;;;;;;6.88;2.78;;;;;;;;;;5034912;28;20061;-53
2022/08/26 13:21:16;;;;;;;5.85;2.88;;;;;;;;;;5033888;28;20063;-50
2022/08/26 13:23:43;;;;;;;3.58;2.20;;;;;;;;;;5031549;28;20057;-46
2022/08/26 13:26:11;;;;;;;11.40;3.03;;;;;;;;;;5027878;28;20076;-49
2022/08/26 13:28:37;;;;;;;9.48;4.18;;;;;;;;;;5032785;28;20060;-49
2022/08/26 13:31:07;;;;;;;8.18;4.13;;;;;;;;;;5033601;28;20049;-51
2022/08/26 13:33:34;;;;;;;9.32;4.10;;;;;;;;;;5034422;28;20111;-50
2022/08/26 13:36:00;;;;;;;9.10;3.85;;;;;;;;;;5033880;28;20065;-51
2022/08/26 13:38:27;;;;;;;6.82;3.70;;;;;;;;;;5032933;28;20132;-50
2022/08/26 13:40:53;;;;;;;7.93;3.95;;;;;;;;;;5033046;28;20053;-48
2022/08/26 13:43:23;;;;;;;8.23;4.00;;;;;;;;;;5024112;28;20451;-49
2022/08/26 13:45:50;;;;;;;5.43;3.58;;;;;;;;;;5019603;28;20360;-48
2022/08/26 13:48:17;;;;;;;6.18;4.20;;;;;;;;;;5014772;28;20104;-53
2022/08/26 13:50:47;;;;;;;8.13;4.80;;;;;;;;;;5028582;28;20045;-51
2022/08/26 13:53:17;;;;;;;10.32;4.53;;;;;;;;;;5027652;28;20368;-49
2022/08/26 13:55:43;;;;;;;7.47;4.03;;;;;;;;;;5033611;28;20103;-51
2022/08/26 13:58:10;;;;;;;10.60;4.30;;;;;;;;;;5033914;28;20077;-46
2022/08/26 14:00:38;;;;;;;7.85;3.60;;;;;;;;;;5033979;28;20473;-49
2022/08/26 14:03:05;;;;;;;8.57;3.45;;;;;;;;;;5030914;28;20069;-45
2022/08/26 14:05:32;;;;;;;6.57;3.20;;;;;;;;;;5032128;28;20422;-46
2022/08/26 14:07:58;;;;;;;5.57;2.70;;;;;;;;;;5032423;28;20136;-48
2022/08/26 14:10:24;;;;;;;8.10;3.30;;;;;;;;;;5032003;28;20128;-47
2022/08/26 14:12:54;;;;;;;9.45;4.00;;;;;;;;;;5019904;28;20092;-46
2022/08/26 14:15:21;;;;;;;6.38;3.25;;;;;;;;;;5022467;28;20087;-47
2022/08/26 14:17:49;;;;;;;7.65;2.80;;;;;;;;;;5030939;28;20056;-46
2022/08/26 14:20:18;;;;;;;9.20;3.65;;;;;;;;;;5031665;28;20064;-49
2022/08/26 14:22:44;;;;;;;6.82;3.00;;;;;;;;;;5029903;28;20409;-46
2022/08/26 14:25:11;;;;;;;8.00;3.33;;;;;;;;;;5028210;28;20056;-48
2022/08/26 14:27:38;;;;;;;5.93;2.90;;;;;;;;;;5024913;28;20059;-49
2022/08/26 14:30:05;;;;;;;3.67;2.50;;;;;;;;;;5032151;28;20057;-47
2022/08/26 14:32:32;;;;;;;9.70;2.92;;;;;;;;;;5031980;28;20057;-47
2022/08/26 14:35:00;;;;;;;4.10;2.42;;;;;;;;;;5029982;28;20160;-48
2022/08/26 14:37:27;;;;;;;9.02;3.42;;;;;;;;;;5024695;28;20382;-48
2022/08/26 14:39:53;;;;;;;5.63;3.08;;;;;;;;;;5026401;28;20056;-48
2022/08/26 14:42:21;;;;;;;4.28;2.60;;;;;;;;;;5023497;28;20140;-51
2022/08/26 14:44:54;;;;;;;5.95;3.10;;;;;;;;;;5032292;28;20080;-49
2022/08/26 14:47:20;;;;;;;7.87;2.97;;;;;;;;;;5028268;28;20057;-51
2022/08/26 14:49:47;;;;;;;6.43;2.95;;;;;;;;;;5024002;28;20050;-48
2022/08/26 14:52:14;;;;;;;8.07;3.17;;;;;;;;;;5026539;28;20055;-49
2022/08/26 14:54:40;;;;;;;7.80;3.50;;;;;;;;;;5022553;28;20057;-49
2022/08/26 14:57:07;;;;;;;9.73;4.10;;;;;;;;;;5026090;28;20042;-48
2022/08/26 14:59:35;;;;;;;6.88;3.55;;;;;;;;;;5030387;28;20132;-52
2022/08/26 15:02:02;;;;;;;5.93;3.35;;;;;;;;;;5032421;28;20053;-54
2022/08/26 15:04:29;;;;;;;8.73;3.67;;;;;;;;;;5033782;28;20041;-50
2022/08/26 15:06:57;;;;;;;9.93;4.05;;;;;;;;;;5033288;28;20049;-48